Terminal Aerodrome Forecast
Issued by NWS

Home | Current Version | Previous Version | Text Only | Print | Product List | Glossary On
Versions: 1 2 3 4 5 6 7 8 9 10 11 12 13 14 15 16 17 18 19
000
FTAK31 PAFA 301733
TAFASC
TAF
PASC 301733Z 3018/3118 23013KT P6SM SCT030 OVC060
      TEMPO 3018/3022 2SM -SN BR BKN025 OVC040
     FM310900 33010KT 3SM -SN BR OVC015=

USA.gov is the U.S. government's official web portal to all federal, state and local government web resources and services.